createdAt,value
2023-05-09T00:01:33.430Z,12.53
2023-05-09T00:03:59.910Z,12.50
2023-05-09T00:06:27.415Z,12.51
2023-05-09T00:08:53.820Z,12.52
2023-05-09T00:11:20.381Z,12.52
2023-05-09T00:13:46.853Z,12.50
2023-05-09T00:16:13.252Z,12.45
2023-05-09T00:18:39.675Z,12.35
2023-05-09T00:21:06.046Z,12.30
2023-05-09T00:23:32.751Z,12.29
2023-05-09T00:25:59.119Z,12.29
2023-05-09T00:28:25.479Z,12.26
2023-05-09T00:30:51.920Z,12.22
2023-05-09T00:33:18.268Z,12.19
2023-05-09T00:35:44.614Z,12.17
2023-05-09T00:38:11.376Z,12.15
2023-05-09T00:40:37.771Z,12.14
2023-05-09T00:43:04.110Z,12.15
2023-05-09T00:45:30.810Z,12.14
2023-05-09T00:47:57.200Z,12.02
2023-05-09T00:50:23.566Z,11.97
2023-05-09T00:52:50.151Z,11.95
2023-05-09T00:55:17.773Z,11.89
2023-05-09T00:57:44.503Z,11.88
2023-05-09T01:00:12.457Z,11.90
2023-05-09T01:02:38.891Z,11.90
2023-05-09T01:05:05.281Z,11.90
2023-05-09T01:07:36.107Z,11.88
2023-05-09T01:10:04.940Z,11.84
2023-05-09T01:12:31.721Z,11.84
2023-05-09T01:14:59.184Z,11.84
2023-05-09T01:17:25.671Z,11.80
2023-05-09T01:19:54.416Z,11.71
2023-05-09T01:22:20.773Z,11.66
2023-05-09T01:24:47.102Z,11.65
2023-05-09T01:27:13.434Z,11.61
2023-05-09T01:29:39.785Z,11.55
2023-05-09T01:32:06.453Z,11.51
2023-05-09T01:34:35.011Z,11.46
2023-05-09T01:37:01.572Z,11.42
2023-05-09T01:39:28.178Z,11.38
2023-05-09T01:41:54.799Z,11.37
2023-05-09T01:44:22.158Z,11.36
2023-05-09T01:46:48.763Z,11.34
2023-05-09T01:49:15.168Z,11.35
2023-05-09T01:51:43.777Z,11.37
2023-05-09T01:54:10.485Z,11.37
2023-05-09T01:56:37.871Z,11.32
2023-05-09T01:59:04.801Z,11.22
2023-05-09T02:01:33.413Z,11.18
2023-05-09T02:04:00.018Z,11.23
2023-05-09T02:06:27.173Z,11.25
2023-05-09T02:08:56.631Z,11.26
2023-05-09T02:11:23.181Z,11.29
2023-05-09T02:13:51.746Z,11.30
2023-05-09T02:16:19.472Z,11.26
2023-05-09T02:18:46.910Z,11.25
2023-05-09T02:21:13.284Z,11.28
2023-05-09T02:23:39.746Z,11.24
2023-05-09T02:26:06.375Z,11.17
2023-05-09T02:28:33.115Z,11.14
2023-05-09T02:31:01.902Z,11.14
2023-05-09T02:33:28.684Z,11.13
2023-05-09T02:35:55.604Z,11.17
2023-05-09T02:38:22.331Z,11.22
2023-05-09T02:40:49.878Z,11.26
2023-05-09T02:43:18.045Z,11.26
2023-05-09T02:45:44.962Z,11.27
2023-05-09T02:48:11.354Z,11.21
2023-05-09T02:50:45.384Z,11.13
2023-05-09T02:53:11.728Z,10.99
2023-05-09T02:55:39.123Z,10.99
2023-05-09T02:58:14.209Z,11.04
2023-05-09T03:00:43.771Z,11.14
2023-05-09T03:03:12.423Z,11.07
2023-05-09T03:05:38.919Z,10.95
2023-05-09T03:08:05.325Z,10.97
2023-05-09T03:10:31.661Z,10.93
2023-05-09T03:12:58.139Z,10.95
2023-05-09T03:15:26.698Z,11.02
2023-05-09T03:17:53.113Z,11.06
2023-05-09T03:20:19.679Z,11.10
2023-05-09T03:22:46.366Z,11.01
2023-05-09T03:25:13.022Z,11.02
2023-05-09T03:27:39.616Z,11.12
2023-05-09T03:30:05.992Z,11.17
2023-05-09T03:32:33.383Z,11.21
2023-05-09T03:34:59.958Z,11.23
2023-05-09T03:37:27.439Z,11.25
2023-05-09T03:39:53.795Z,11.26
2023-05-09T03:42:20.516Z,11.24
2023-05-09T03:44:49.894Z,11.21
2023-05-09T03:47:16.231Z,11.18
2023-05-09T03:49:42.649Z,11.20
2023-05-09T03:52:09.118Z,11.22
2023-05-09T03:54:35.498Z,11.20
2023-05-09T03:57:01.838Z,11.20
2023-05-09T03:59:28.300Z,11.22
2023-05-09T04:01:55.148Z,11.24
2023-05-09T04:04:22.203Z,11.26
2023-05-09T04:06:49.237Z,11.20
2023-05-09T04:09:18.239Z,11.23
2023-05-09T04:11:45.687Z,11.26
2023-05-09T04:14:12.080Z,11.31
2023-05-09T04:16:40.822Z,11.33
2023-05-09T04:19:07.279Z,11.37
2023-05-09T04:21:33.654Z,11.37
2023-05-09T04:24:02.155Z,11.40
2023-05-09T04:26:31.174Z,11.42
2023-05-09T04:28:57.862Z,11.45
2023-05-09T04:31:24.374Z,11.39
2023-05-09T04:33:50.751Z,11.32
2023-05-09T04:36:17.121Z,11.30
2023-05-09T04:38:46.129Z,11.27
2023-05-09T04:41:12.923Z,11.25
2023-05-09T04:43:41.708Z,11.34
2023-05-09T04:46:08.291Z,11.36
2023-05-09T04:48:34.856Z,11.36
2023-05-09T04:51:01.258Z,11.31
2023-05-09T04:53:27.675Z,11.25
2023-05-09T04:55:54.072Z,11.24
2023-05-09T04:58:20.467Z,11.22
2023-05-09T05:00:52.125Z,11.17
2023-05-09T05:03:18.496Z,11.15
2023-05-09T05:05:45.044Z,11.23
2023-05-09T05:08:11.608Z,11.30
2023-05-09T05:10:38.340Z,11.37
2023-05-09T05:13:04.841Z,11.38
2023-05-09T05:15:31.347Z,11.51
2023-05-09T05:17:58.721Z,11.63
2023-05-09T05:20:25.263Z,11.76
2023-05-09T05:22:51.645Z,11.91
2023-05-09T05:25:18.035Z,12.00
2023-05-09T05:27:44.600Z,11.98
2023-05-09T05:30:11.126Z,12.12
2023-05-09T05:32:37.522Z,12.18
2023-05-09T05:35:04.080Z,12.28
2023-05-09T05:37:30.595Z,12.45
2023-05-09T05:39:57.238Z,12.61
2023-05-09T05:42:24.254Z,12.74
2023-05-09T05:44:50.814Z,12.94
2023-05-09T05:47:17.193Z,12.97
2023-05-09T05:49:46.276Z,12.96
2023-05-09T05:52:12.919Z,12.97
2023-05-09T05:54:39.330Z,13.05
2023-05-09T05:57:05.892Z,13.04
2023-05-09T05:59:32.265Z,13.02
2023-05-09T06:01:58.645Z,13.06
2023-05-09T06:04:27.203Z,13.13
2023-05-09T06:06:53.716Z,13.07
2023-05-09T06:09:22.535Z,13.15
2023-05-09T06:11:48.973Z,13.25
2023-05-09T06:14:15.734Z,13.37
2023-05-09T06:16:42.317Z,13.43
2023-05-09T06:19:09.021Z,13.62
2023-05-09T06:21:35.420Z,13.76
2023-05-09T06:24:08.493Z,13.80
2023-05-09T06:26:40.227Z,13.94
2023-05-09T06:29:08.655Z,14.11
2023-05-09T06:31:35.097Z,14.20
2023-05-09T06:34:05.986Z,14.34
2023-05-09T06:36:32.415Z,14.45
2023-05-09T06:38:59.203Z,14.52
2023-05-09T06:41:25.584Z,14.40
2023-05-09T06:43:51.972Z,14.30
2023-05-09T06:46:19.617Z,14.29
2023-05-09T06:48:46.433Z,14.33
2023-05-09T06:51:14.476Z,14.47
2023-05-09T06:53:41.881Z,14.52
2023-05-09T06:56:08.453Z,14.66
2023-05-09T06:58:35.170Z,14.72
2023-05-09T07:01:01.527Z,14.74
2023-05-09T07:03:30.947Z,14.76
2023-05-09T07:05:59.590Z,14.72
2023-05-09T07:08:26.261Z,14.74
2023-05-09T07:10:53.702Z,14.84
2023-05-09T07:13:22.462Z,14.97
2023-05-09T07:15:49.250Z,15.12
2023-05-09T07:18:18.479Z,15.22
2023-05-09T07:20:45.380Z,15.40
2023-05-09T07:23:14.054Z,15.52
2023-05-09T07:25:40.419Z,15.55
2023-05-09T07:28:06.807Z,15.65
2023-05-09T07:30:33.404Z,15.63
2023-05-09T07:32:59.894Z,15.74
2023-05-09T07:35:28.792Z,15.73
2023-05-09T07:37:55.297Z,15.76
2023-05-09T07:40:21.692Z,15.70
2023-05-09T07:42:52.805Z,15.70
2023-05-09T07:45:21.226Z,15.92
2023-05-09T07:47:56.781Z,16.17
2023-05-09T07:50:23.321Z,16.34
2023-05-09T07:52:57.473Z,16.59
2023-05-09T07:55:24.206Z,16.80
2023-05-09T07:57:52.666Z,16.77
2023-05-09T08:00:19.160Z,16.82
2023-05-09T08:02:45.836Z,16.27
2023-05-09T08:05:12.683Z,16.49
2023-05-09T08:07:42.308Z,16.69
2023-05-09T08:10:08.938Z,16.79
2023-05-09T08:12:36.323Z,17.13
2023-05-09T08:15:02.714Z,17.45
2023-05-09T08:17:30.483Z,17.70
2023-05-09T08:19:59.156Z,18.10
2023-05-09T08:22:28.163Z,18.39
2023-05-09T08:24:54.834Z,18.62
2023-05-09T08:27:21.180Z,18.80
2023-05-09T08:29:47.546Z,18.76
2023-05-09T08:32:14.074Z,18.76
2023-05-09T08:34:40.797Z,18.70
2023-05-09T08:37:07.205Z,18.76
2023-05-09T08:39:34.612Z,18.15
2023-05-09T08:42:01.021Z,17.85
2023-05-09T08:44:34.822Z,17.68
2023-05-09T08:47:01.353Z,17.46
2023-05-09T08:49:27.868Z,17.48
2023-05-09T08:51:54.554Z,17.66
2023-05-09T08:54:22.770Z,17.99
2023-05-09T08:56:49.316Z,18.45
2023-05-09T08:59:16.316Z,18.73
2023-05-09T09:01:43.342Z,18.80
2023-05-09T09:04:11.051Z,19.20
2023-05-09T09:06:37.420Z,19.63
2023-05-09T09:09:03.759Z,20.13
2023-05-09T09:11:31.156Z,20.15
2023-05-09T09:13:57.709Z,18.50
2023-05-09T09:16:24.102Z,17.76
2023-05-09T09:18:50.511Z,17.42
2023-05-09T09:21:16.929Z,17.49
2023-05-09T09:23:44.452Z,17.65
2023-05-09T09:26:10.840Z,17.89
2023-05-09T09:28:37.527Z,18.35
2023-05-09T09:31:03.963Z,18.85
2023-05-09T09:33:30.650Z,19.17
2023-05-09T09:35:57.151Z,19.48
2023-05-09T09:38:23.818Z,19.67
2023-05-09T09:40:52.309Z,19.59
2023-05-09T09:43:19.004Z,19.85
2023-05-09T09:45:45.611Z,20.21
2023-05-09T09:48:12.313Z,20.32
2023-05-09T09:50:38.945Z,20.34
2023-05-09T09:53:05.331Z,20.34
2023-05-09T09:55:34.751Z,20.25
2023-05-09T09:58:04.099Z,20.33
2023-05-09T10:00:31.506Z,19.23
2023-05-09T10:02:58.009Z,18.92
2023-05-09T10:05:24.398Z,18.11
2023-05-09T10:07:50.845Z,18.00
2023-05-09T10:10:17.864Z,18.23
2023-05-09T10:12:45.706Z,18.14
2023-05-09T10:15:12.098Z,18.25
2023-05-09T10:17:39.591Z,18.57
2023-05-09T10:20:06.185Z,18.46
2023-05-09T10:22:35.498Z,18.29
2023-05-09T10:25:01.833Z,18.33
2023-05-09T10:27:28.238Z,18.41
2023-05-09T10:29:54.724Z,18.03
2023-05-09T10:32:23.509Z,18.20
2023-05-09T10:34:52.390Z,18.59
2023-05-09T10:37:18.970Z,18.80
2023-05-09T10:39:46.268Z,18.95
2023-05-09T10:44:53.374Z,18.98
2023-05-09T10:47:20.390Z,18.97
2023-05-09T10:52:28.959Z,19.49
2023-05-09T10:54:55.385Z,19.11
2023-05-09T10:57:24.151Z,18.95
2023-05-09T10:59:50.856Z,18.43
2023-05-09T11:02:20.413Z,18.18
2023-05-09T11:04:46.809Z,18.18
2023-05-09T11:07:13.155Z,18.25
2023-05-09T11:09:42.954Z,18.32
2023-05-09T11:12:09.731Z,18.45
2023-05-09T11:14:36.209Z,18.95
2023-05-09T11:17:05.934Z,19.39
2023-05-09T11:19:33.392Z,19.66
2023-05-09T11:22:02.596Z,19.93
2023-05-09T11:24:29.099Z,20.11
2023-05-09T11:26:55.732Z,20.11
2023-05-09T11:29:22.426Z,20.09
2023-05-09T11:31:54.761Z,20.21
2023-05-09T11:34:21.308Z,19.79
2023-05-09T11:36:47.950Z,19.90
2023-05-09T11:39:14.357Z,20.15
2023-05-09T11:41:42.845Z,20.06
2023-05-09T11:44:09.261Z,19.84
2023-05-09T11:46:38.048Z,20.00
2023-05-09T11:49:04.431Z,20.17
2023-05-09T11:51:35.963Z,20.17
2023-05-09T11:54:02.554Z,19.77
2023-05-09T11:56:31.297Z,19.85
2023-05-09T11:58:58.998Z,19.76
2023-05-09T12:01:25.396Z,19.60
2023-05-09T12:03:51.846Z,19.35
2023-05-09T12:06:20.618Z,19.51
2023-05-09T12:08:48.335Z,19.80
2023-05-09T12:11:15.853Z,19.83
2023-05-09T12:13:42.590Z,20.06
2023-05-09T12:16:09.477Z,19.71
2023-05-09T12:18:39.225Z,19.74
2023-05-09T12:21:06.350Z,19.57
2023-05-09T12:23:32.941Z,19.01
2023-05-09T12:26:02.194Z,18.82
2023-05-09T12:28:28.576Z,18.94
2023-05-09T12:30:55.062Z,19.12
2023-05-09T12:33:21.436Z,18.70
2023-05-09T12:35:48.409Z,18.51
2023-05-09T12:38:15.133Z,18.53
2023-05-09T12:40:42.133Z,18.68
2023-05-09T12:43:08.804Z,18.75
2023-05-09T12:45:35.237Z,18.64
2023-05-09T12:48:01.717Z,18.38
2023-05-09T12:50:28.327Z,18.33
2023-05-09T12:53:02.635Z,18.55
2023-05-09T12:55:33.137Z,18.72
2023-05-09T12:57:59.552Z,18.95
2023-05-09T13:00:25.982Z,19.18
2023-05-09T13:02:54.905Z,19.31
2023-05-09T13:05:21.595Z,19.47
2023-05-09T13:07:47.985Z,19.56
2023-05-09T13:10:14.454Z,19.53
2023-05-09T13:12:41.012Z,19.51
2023-05-09T13:15:09.615Z,19.43
2023-05-09T13:17:35.986Z,19.47
2023-05-09T13:20:02.346Z,19.56
2023-05-09T13:22:30.999Z,19.66
2023-05-09T13:24:57.386Z,19.39
2023-05-09T13:27:26.142Z,19.28
2023-05-09T13:29:53.630Z,19.36
2023-05-09T13:32:21.375Z,19.34
2023-05-09T13:34:51.956Z,19.43
2023-05-09T13:37:18.418Z,19.56
2023-05-09T13:39:45.341Z,19.54
2023-05-09T13:42:11.768Z,19.41
2023-05-09T13:44:38.502Z,19.37
2023-05-09T13:47:05.097Z,19.36
2023-05-09T13:49:31.543Z,19.21
2023-05-09T13:51:59.605Z,19.09
2023-05-09T13:54:27.038Z,19.03
2023-05-09T13:56:53.878Z,18.92
2023-05-09T13:59:21.647Z,18.80
2023-05-09T14:01:48.092Z,18.78
2023-05-09T14:04:15.064Z,18.76
2023-05-09T14:06:41.673Z,18.67
2023-05-09T14:09:08.677Z,18.47
2023-05-09T14:11:35.286Z,18.36
2023-05-09T14:14:01.778Z,18.29
2023-05-09T14:16:29.316Z,18.11
2023-05-09T14:18:55.956Z,18.11
2023-05-09T14:21:22.355Z,18.05
2023-05-09T14:23:48.698Z,17.99
2023-05-09T14:26:15.042Z,17.98
2023-05-09T14:28:41.492Z,17.92
2023-05-09T14:31:08.144Z,17.69
2023-05-09T14:33:36.850Z,17.50
2023-05-09T14:36:03.341Z,17.49
2023-05-09T14:38:30.720Z,17.57
2023-05-09T14:40:57.495Z,17.51
2023-05-09T14:43:27.632Z,17.27
2023-05-09T14:45:54.585Z,17.30
2023-05-09T14:48:28.392Z,17.29
2023-05-09T14:50:55.000Z,17.38
2023-05-09T14:53:21.359Z,17.31
2023-05-09T14:55:48.062Z,17.16
2023-05-09T14:58:14.524Z,17.13
2023-05-09T15:00:41.496Z,17.03
2023-05-09T15:03:07.991Z,16.92
2023-05-09T15:05:36.608Z,16.98
2023-05-09T15:08:02.999Z,16.97
2023-05-09T15:10:29.368Z,16.96
2023-05-09T15:12:56.090Z,16.95
2023-05-09T15:15:22.485Z,16.95
2023-05-09T15:17:48.952Z,16.74
2023-05-09T15:20:15.942Z,16.79
2023-05-09T15:22:43.132Z,16.74
2023-05-09T15:25:09.561Z,16.77
2023-05-09T15:27:36.082Z,16.70
2023-05-09T15:30:02.818Z,16.64
2023-05-09T15:32:29.178Z,16.40
2023-05-09T15:34:55.635Z,16.30
2023-05-09T15:37:24.602Z,16.06
2023-05-09T15:39:51.163Z,16.04
2023-05-09T15:42:17.675Z,16.11
2023-05-09T15:44:46.231Z,16.14
2023-05-09T15:47:12.604Z,16.19
2023-05-09T15:49:38.956Z,16.03
2023-05-09T15:52:05.743Z,15.85
2023-05-09T15:54:34.489Z,15.80
2023-05-09T15:57:00.981Z,15.77
2023-05-09T15:59:28.341Z,15.85
2023-05-09T16:01:54.865Z,15.87
2023-05-09T16:04:22.308Z,15.93
2023-05-09T16:06:48.680Z,15.90
2023-05-09T16:09:15.073Z,15.95
2023-05-09T16:11:41.495Z,15.80
2023-05-09T16:14:09.961Z,15.67
2023-05-09T16:16:40.741Z,15.65
2023-05-09T16:19:09.534Z,15.55
2023-05-09T16:21:39.040Z,15.52
2023-05-09T16:24:05.500Z,15.52
2023-05-09T16:26:31.876Z,15.50
2023-05-09T16:28:58.255Z,15.45
2023-05-09T16:31:25.010Z,15.39
2023-05-09T16:33:51.402Z,15.31
2023-05-09T16:36:17.850Z,15.32
2023-05-09T16:38:44.365Z,15.37
2023-05-09T16:41:10.910Z,15.42
2023-05-09T16:43:37.899Z,15.46
2023-05-09T16:46:04.516Z,15.48
2023-05-09T16:48:30.951Z,15.43
2023-05-09T16:50:57.311Z,15.36
2023-05-09T16:53:24.489Z,15.38
2023-05-09T16:55:52.343Z,15.46
2023-05-09T16:58:19.958Z,15.47
2023-05-09T17:00:46.587Z,15.36
2023-05-09T17:03:12.955Z,15.29
2023-05-09T17:05:39.677Z,15.25
2023-05-09T17:08:06.390Z,15.21
2023-05-09T17:10:33.177Z,15.16
2023-05-09T17:13:00.637Z,15.08
2023-05-09T17:15:27.062Z,15.03
2023-05-09T17:17:53.737Z,15.05
2023-05-09T17:20:22.596Z,15.15
2023-05-09T17:22:49.464Z,15.10
2023-05-09T17:25:16.007Z,15.03
2023-05-09T17:27:43.383Z,14.96
2023-05-09T17:30:09.723Z,14.93
2023-05-09T17:32:36.117Z,14.91
2023-05-09T17:35:02.699Z,14.91
2023-05-09T17:37:29.046Z,14.94
2023-05-09T17:39:55.496Z,14.93
2023-05-09T17:42:21.857Z,14.92
2023-05-09T17:44:53.386Z,14.81
2023-05-09T17:47:19.741Z,14.90
2023-05-09T17:49:54.022Z,14.91
2023-05-09T17:52:20.933Z,14.91
2023-05-09T17:54:47.535Z,14.90
2023-05-09T17:57:16.251Z,14.87
2023-05-09T17:59:42.628Z,14.80
2023-05-09T18:02:11.415Z,14.91
2023-05-09T18:04:38.188Z,14.92
2023-05-09T18:07:05.606Z,14.90
2023-05-09T18:09:32.111Z,14.91
2023-05-09T18:12:01.545Z,14.87
2023-05-09T18:14:27.896Z,14.81
2023-05-09T18:16:54.548Z,14.79
2023-05-09T18:19:20.954Z,14.78
2023-05-09T18:21:47.301Z,14.75
2023-05-09T18:24:16.906Z,14.64
2023-05-09T18:26:43.526Z,14.61
2023-05-09T18:29:12.902Z,14.51
2023-05-09T18:31:40.405Z,14.44
2023-05-09T18:34:06.988Z,14.45
2023-05-09T18:36:35.779Z,14.36
2023-05-09T18:39:04.934Z,14.32
2023-05-09T18:41:31.280Z,14.38
2023-05-09T18:43:57.718Z,14.34
2023-05-09T18:46:25.521Z,14.34
2023-05-09T18:48:52.290Z,14.30
2023-05-09T18:51:18.634Z,14.35
2023-05-09T18:53:48.290Z,14.43
2023-05-09T18:56:16.170Z,14.43
2023-05-09T18:58:44.589Z,14.50
2023-05-09T19:01:13.370Z,14.51
2023-05-09T19:03:49.516Z,14.48
2023-05-09T19:06:15.920Z,14.44
2023-05-09T19:08:43.553Z,14.47
2023-05-09T19:11:09.917Z,14.49
2023-05-09T19:13:36.342Z,14.51
2023-05-09T19:16:02.776Z,14.53
2023-05-09T19:18:33.288Z,14.49
2023-05-09T19:20:59.640Z,14.52
2023-05-09T19:23:25.940Z,14.54
2023-05-09T19:25:52.267Z,14.40
2023-05-09T19:28:18.640Z,14.43
2023-05-09T19:30:46.072Z,14.42
2023-05-09T19:33:17.157Z,14.39
2023-05-09T19:35:45.012Z,14.37
2023-05-09T19:38:18.728Z,14.44
2023-05-09T19:40:45.234Z,14.48
2023-05-09T19:43:12.243Z,14.46
2023-05-09T19:45:39.740Z,14.47
2023-05-09T19:48:06.566Z,14.47
2023-05-09T19:50:33.090Z,14.43
2023-05-09T19:52:59.850Z,14.45
2023-05-09T19:55:26.183Z,14.45
2023-05-09T19:57:52.522Z,14.40
2023-05-09T20:00:20.070Z,14.43
2023-05-09T20:02:46.485Z,14.40
2023-05-09T20:05:14.543Z,14.43
2023-05-09T20:07:40.834Z,14.43
2023-05-09T20:10:07.112Z,14.33
2023-05-09T20:12:33.408Z,14.22
2023-05-09T20:14:59.705Z,14.27
2023-05-09T20:17:25.989Z,14.28
2023-05-09T20:19:52.330Z,14.25
2023-05-09T20:22:18.617Z,14.26
2023-05-09T20:24:44.923Z,14.24
2023-05-09T20:27:11.846Z,14.25
2023-05-09T20:29:38.231Z,14.13
2023-05-09T20:32:09.193Z,14.09
2023-05-09T20:34:35.702Z,14.09
2023-05-09T20:37:02.226Z,14.11
2023-05-09T20:39:28.522Z,13.97
2023-05-09T20:41:55.297Z,14.02
2023-05-09T20:44:25.676Z,14.00
2023-05-09T20:46:51.983Z,13.91
2023-05-09T20:49:18.259Z,13.99
2023-05-09T20:51:44.565Z,14.01
2023-05-09T20:54:10.845Z,14.06
2023-05-09T20:56:37.139Z,14.05
2023-05-09T20:59:05.829Z,14.06
2023-05-09T21:01:32.662Z,14.08
2023-05-09T21:03:58.998Z,14.07
2023-05-09T21:06:25.585Z,14.09
2023-05-09T21:08:51.883Z,14.08
2023-05-09T21:11:19.202Z,14.07
2023-05-09T21:13:45.484Z,14.11
2023-05-09T21:16:13.840Z,14.09
2023-05-09T21:18:40.133Z,14.11
2023-05-09T21:21:06.404Z,14.04
2023-05-09T21:23:32.707Z,14.03
2023-05-09T21:25:59.488Z,14.04
2023-05-09T21:28:25.775Z,14.05
2023-05-09T21:30:53.147Z,14.01
2023-05-09T21:33:20.471Z,14.07
2023-05-09T21:35:46.765Z,14.11
2023-05-09T21:38:13.040Z,14.05
2023-05-09T21:40:41.658Z,14.00
2023-05-09T21:43:07.944Z,14.07
2023-05-09T21:45:34.238Z,14.02
2023-05-09T21:48:00.884Z,13.89
2023-05-09T21:50:28.219Z,13.78
2023-05-09T21:52:54.545Z,13.60
2023-05-09T21:55:20.844Z,13.58
2023-05-09T21:57:48.221Z,13.60
2023-05-09T22:00:14.711Z,13.63
2023-05-09T22:02:41.490Z,13.54
2023-05-09T22:05:07.848Z,13.38
2023-05-09T22:07:34.129Z,13.27
2023-05-09T22:10:02.754Z,13.21
2023-05-09T22:12:30.078Z,13.06
2023-05-09T22:14:57.004Z,13.16
2023-05-09T22:17:23.410Z,13.28
2023-05-09T22:19:52.543Z,13.10
2023-05-09T22:22:19.144Z,13.12
2023-05-09T22:24:45.437Z,13.26
2023-05-09T22:27:12.744Z,13.33
2023-05-09T22:29:39.252Z,13.38
2023-05-09T22:32:06.609Z,13.48
2023-05-09T22:34:34.409Z,13.53
2023-05-09T22:37:01.739Z,13.50
2023-05-09T22:39:28.376Z,13.59
2023-05-09T22:41:55.012Z,13.61
2023-05-09T22:44:21.561Z,13.63
2023-05-09T22:46:48.317Z,13.59
2023-05-09T22:49:14.787Z,13.60
2023-05-09T22:51:42.234Z,13.58
2023-05-09T22:54:08.844Z,13.55
2023-05-09T22:56:35.579Z,13.52
2023-05-09T22:59:01.995Z,13.56
2023-05-09T23:01:28.458Z,13.54
2023-05-09T23:03:54.859Z,13.53
2023-05-09T23:06:21.425Z,13.54
2023-05-09T23:08:49.920Z,13.56
2023-05-09T23:11:17.866Z,13.54
2023-05-09T23:13:44.469Z,13.52
2023-05-09T23:16:10.944Z,13.56
2023-05-09T23:18:37.684Z,13.59
2023-05-09T23:21:04.017Z,13.60
2023-05-09T23:23:30.345Z,13.67
2023-05-09T23:25:56.707Z,13.62
2023-05-09T23:28:23.042Z,13.68
2023-05-09T23:30:49.627Z,13.60
2023-05-09T23:33:16.983Z,13.55
2023-05-09T23:35:43.375Z,13.49
2023-05-09T23:38:09.756Z,13.60
2023-05-09T23:40:36.137Z,13.53
2023-05-09T23:43:02.509Z,13.54
2023-05-09T23:45:28.853Z,13.49
2023-05-09T23:47:55.261Z,13.52
2023-05-09T23:50:23.624Z,13.36
2023-05-09T23:52:49.985Z,13.29
2023-05-09T23:55:17.380Z,13.27
2023-05-09T23:57:44.644Z,13.28
